Time;durP1;ratioP1;P1;durP2;ratioP2;P2;SDS_P1;SDS_P2;PMS_P1;PMS_P2;Temp;Humidity;BMP_temperature;BMP_pressure;BME280_temperature;BME280_humidity;BME280_pressure;Samples;Min_cycle;Max_cycle;Signal;HPM_P1;HPM_P2
2022/08/17 00:02:08;;;;;;;27.52;23.77;;;;;;;19.60;100.00;98233.80;2202456;81;21237;-86
2022/08/17 00:05:09;;;;;;;28.70;23.65;;;;;;;19.57;100.00;98225.54;2175316;80;21053;-86
2022/08/17 00:08:09;;;;;;;28.02;22.98;;;;;;;19.52;100.00;98228.09;2190008;81;20998;-87
2022/08/17 00:11:10;;;;;;;32.53;22.02;;;;;;;19.49;100.00;98228.08;2190273;81;20974;-85
2022/08/17 00:14:11;;;;;;;22.95;20.40;;;;;;;19.45;100.00;98223.50;2188312;81;21006;-86
2022/08/17 00:17:12;;;;;;;21.02;18.75;;;;;;;19.37;100.00;98224.73;2198251;80;21461;-86
2022/08/17 00:20:12;;;;;;;23.05;19.27;;;;;;;19.33;100.00;98222.30;2197287;81;21010;-86
2022/08/17 00:23:13;;;;;;;20.80;18.45;;;;;;;19.29;100.00;98215.38;2197153;81;21006;-86
2022/08/17 00:26:14;;;;;;;19.62;17.60;;;;;;;19.24;100.00;98219.81;2198590;79;21481;-86
2022/08/17 00:29:15;;;;;;;23.02;20.27;;;;;;;19.20;100.00;98222.66;2197544;81;21066;-86
2022/08/17 00:32:16;;;;;;;24.15;20.08;;;;;;;19.17;100.00;98224.49;2197969;81;21014;-86
2022/08/17 00:35:17;;;;;;;24.57;21.00;;;;;;;19.17;100.00;98223.16;2215798;79;20995;-87
2022/08/17 00:38:17;;;;;;;23.70;20.50;;;;;;;19.11;100.00;98217.02;2207920;79;20922;-86
2022/08/17 00:41:18;;;;;;;25.35;21.37;;;;;;;19.12;100.00;98221.80;2198247;79;21584;-85
2022/08/17 00:44:19;;;;;;;28.65;21.42;;;;;;;19.09;100.00;98222.27;2202412;79;21524;-85
2022/08/17 00:47:20;;;;;;;25.17;21.68;;;;;;;19.01;100.00;98221.63;2202013;81;21017;-85
2022/08/17 00:50:20;;;;;;;25.50;21.37;;;;;;;18.99;100.00;98218.95;2202342;81;21021;-85
2022/08/17 00:53:21;;;;;;;24.10;20.85;;;;;;;18.95;100.00;98223.16;2202191;81;21038;-85
2022/08/17 00:56:22;;;;;;;22.07;19.45;;;;;;;18.92;100.00;98220.45;2202859;79;20998;-84
2022/08/17 00:59:23;;;;;;;24.82;20.10;;;;;;;18.90;100.00;98218.58;2202758;80;21046;-85
2022/08/17 01:02:24;;;;;;;27.42;21.40;;;;;;;18.86;100.00;98230.73;2202486;81;20959;-85
2022/08/17 01:05:24;;;;;;;22.07;19.70;;;;;;;18.84;100.00;98224.08;2200939;79;21041;-86
2022/08/17 01:08:25;;;;;;;24.57;21.70;;;;;;;18.83;100.00;98227.75;2202595;79;21009;-86
2022/08/17 01:11:26;;;;;;;25.70;19.57;;;;;;;18.83;100.00;98217.14;2198880;79;20986;-86
2022/08/17 01:14:27;;;;;;;26.77;20.62;;;;;;;18.86;100.00;98230.73;2199408;81;21025;-84
2022/08/17 01:17:28;;;;;;;24.15;21.73;;;;;;;18.77;100.00;98226.89;2202451;81;20966;-85
2022/08/17 01:20:29;;;;;;;27.42;21.37;;;;;;;18.72;100.00;98220.98;2202470;81;21068;-85
2022/08/17 01:23:30;;;;;;;24.35;19.95;;;;;;;18.70;100.00;98228.91;2202218;81;20946;-86
2022/08/17 01:26:31;;;;;;;22.58;20.15;;;;;;;18.70;100.00;98237.66;2161398;81;21569;-86
2022/08/17 01:29:32;;;;;;;24.02;21.23;;;;;;;18.68;100.00;98236.31;2175876;81;21066;-88
2022/08/17 01:32:33;;;;;;;21.30;19.15;;;;;;;18.68;100.00;98241.61;2175484;81;21172;-86
2022/08/17 01:35:34;;;;;;;24.72;21.77;;;;;;;18.61;100.00;98237.77;2189168;81;20991;-85
2022/08/17 01:38:34;;;;;;;24.00;20.45;;;;;;;18.59;100.00;98241.71;2214987;80;21450;-85
2022/08/17 01:41:35;;;;;;;24.23;21.68;;;;;;;18.58;100.00;98240.91;2196522;79;21026;-85
2022/08/17 01:44:39;;;;;;;22.90;20.00;;;;;;;18.57;100.00;98237.18;2201031;80;21457;-85
2022/08/17 01:47:39;;;;;;;22.98;20.57;;;;;;;18.56;100.00;98240.36;2200504;79;21125;-86
2022/08/17 01:50:40;;;;;;;23.25;20.88;;;;;;;18.55;100.00;98244.55;2189730;80;21016;-86
2022/08/17 01:53:41;;;;;;;27.07;22.15;;;;;;;18.53;100.00;98241.34;2200139;79;21041;-86
2022/08/17 01:56:41;;;;;;;24.43;21.23;;;;;;;18.53;100.00;98238.17;2197045;79;21046;-87
2022/08/17 01:59:42;;;;;;;22.95;20.27;;;;;;;18.54;100.00;98236.32;2198136;80;20962;-85
2022/08/17 02:02:44;;;;;;;26.85;22.95;;;;;;;18.52;100.00;98240.54;2196035;80;21604;-85
2022/08/17 02:05:47;;;;;;;23.95;20.88;;;;;;;18.53;100.00;98238.69;2194209;80;21097;-85
2022/08/17 02:08:47;;;;;;;25.05;22.45;;;;;;;18.55;100.00;98241.90;2178590;79;21540;-85
2022/08/17 02:11:48;;;;;;;22.30;19.85;;;;;;;18.54;100.00;98241.09;2198139;80;21117;-86
2022/08/17 02:14:51;;;;;;;24.55;21.75;;;;;;;18.54;100.00;98246.92;2194916;81;21045;-86
2022/08/17 02:17:51;;;;;;;22.10;19.60;;;;;;;18.51;100.00;98241.59;2168965;80;21057;-86
2022/08/17 02:20:52;;;;;;;27.35;21.70;;;;;;;18.50;100.00;98245.81;2200901;81;20998;-86
2022/08/17 02:23:53;;;;;;;23.35;20.82;;;;;;;18.40;100.00;98247.27;2191994;79;21017;-87
2022/08/17 02:26:54;;;;;;;27.93;22.50;;;;;;;18.37;100.00;98242.42;2203340;81;21038;-86
2022/08/17 02:29:55;;;;;;;28.20;20.05;;;;;;;18.35;100.00;98245.84;2191155;81;21106;-86
2022/08/17 02:32:56;;;;;;;27.82;20.70;;;;;;;18.36;100.00;98243.47;2197303;81;21016;-85
2022/08/17 02:35:57;;;;;;;23.22;20.55;;;;;;;18.34;100.00;98240.27;2204557;79;21136;-86
2022/08/17 02:38:58;;;;;;;23.75;21.12;;;;;;;18.33;100.00;98237.34;2197571;80;20990;-85
2022/08/17 02:41:58;;;;;;;28.27;23.15;;;;;;;18.31;100.00;98246.05;2200017;79;21033;-85
2022/08/17 02:44:59;;;;;;;22.90;20.50;;;;;;;18.32;100.00;98241.55;2200654;81;21021;-86
2022/08/17 02:48:00;;;;;;;24.32;20.77;;;;;;;18.33;100.00;98245.80;2194509;81;21442;-87
2022/08/17 02:51:00;;;;;;;31.40;21.45;;;;;;;18.30;100.00;98243.13;2195441;79;21603;-86
2022/08/17 02:54:01;;;;;;;24.72;20.52;;;;;;;18.27;100.00;98235.63;2192272;80;21008;-86
2022/08/17 02:57:02;;;;;;;23.77;21.27;;;;;;;18.25;100.00;98238.25;2172675;80;21132;-85
2022/08/17 03:00:02;;;;;;;25.00;21.93;;;;;;;18.25;100.00;98240.91;2195815;80;21064;-85
2022/08/17 03:03:03;;;;;;;24.92;21.82;;;;;;;18.24;100.00;98242.75;2182243;81;21521;-85
2022/08/17 03:06:04;;;;;;;25.25;22.55;;;;;;;18.28;100.00;98245.19;2198087;80;21006;-86
2022/08/17 03:09:05;;;;;;;24.95;21.57;;;;;;;18.30;100.00;98241.00;2197406;81;21005;-86
2022/08/17 03:12:06;;;;;;;25.97;21.82;;;;;;;18.28;100.00;98243.06;2197228;79;20958;-86
2022/08/17 03:15:06;;;;;;;28.23;22.48;;;;;;;18.26;100.00;98247.80;2197332;81;21056;-85
2022/08/17 03:18:07;;;;;;;28.85;22.87;;;;;;;18.25;100.00;98243.03;2201106;79;21521;-85
2022/08/17 03:21:08;;;;;;;26.97;22.27;;;;;;;18.26;100.00;98247.28;2202109;81;21010;-86
2022/08/17 03:24:09;;;;;;;27.60;22.65;;;;;;;18.25;100.00;98248.33;2202254;80;21533;-85
2022/08/17 03:27:10;;;;;;;26.35;22.50;;;;;;;18.23;100.00;98245.64;2203135;80;20947;-86
2022/08/17 03:30:12;;;;;;;25.80;23.02;;;;;;;18.23;100.00;98245.64;2202321;81;21084;-85
2022/08/17 03:33:13;;;;;;;26.45;22.55;;;;;;;18.25;100.00;98250.98;2202373;81;21085;-85
2022/08/17 03:36:14;;;;;;;26.93;22.58;;;;;;;18.24;100.00;98245.40;2198180;79;20954;-85
2022/08/17 03:39:20;;;;;;;25.50;21.75;;;;;;;18.22;100.00;98244.84;2197055;80;21017;-85
2022/08/17 03:42:20;;;;;;;25.97;22.32;;;;;;;18.22;100.00;98246.17;2196850;80;21006;-85
2022/08/17 03:58:37;;;;;;;24.05;20.97;;;;;;;18.50;100.00;98253.23;2177034;81;21077;-84
2022/08/17 04:01:38;;;;;;;31.23;21.73;;;;;;;18.62;100.00;98263.75;2188890;81;20907;-86
2022/08/17 04:04:38;;;;;;;23.77;21.23;;;;;;;18.68;100.00;98250.89;2190034;81;21597;-85
2022/08/17 04:07:41;;;;;;;23.57;21.07;;;;;;;18.82;100.00;98263.28;2190030;81;21084;-86
2022/08/17 04:10:42;;;;;;;25.95;21.02;;;;;;;18.99;100.00;98270.16;2189491;81;21010;-86
2022/08/17 04:13:43;;;;;;;27.10;21.35;;;;;;;19.14;100.00;98269.58;2190056;81;21569;-86
2022/08/17 04:16:44;;;;;;;24.63;21.15;;;;;;;19.21;100.00;98272.86;2190039;81;21513;-87
2022/08/17 04:19:44;;;;;;;24.98;21.17;;;;;;;19.32;100.00;98277.25;2190021;81;20963;-86
2022/08/17 04:22:45;;;;;;;22.85;19.82;;;;;;;19.39;100.00;98279.73;2183558;81;21006;-86
2022/08/17 04:25:47;;;;;;;25.52;22.27;;;;;;;19.39;100.00;98285.03;2189220;81;21003;-85
2022/08/17 04:28:48;;;;;;;23.38;20.65;;;;;;;19.20;100.00;98291.16;2188172;81;21574;-86
2022/08/17 04:31:54;;;;;;;25.37;22.52;;;;;;;19.12;100.00;98296.89;2188935;81;21049;-86
2022/08/17 04:34:59;;;;;;;26.62;23.02;;;;;;;19.05;100.00;98292.27;2167359;81;20981;-86
2022/08/17 04:38:01;;;;;;;28.67;25.00;;;;;;;19.10;100.00;98294.17;2208338;79;21118;-86
2022/08/17 04:44:20;;;;;;;28.15;22.90;;;;;;;19.66;100.00;98292.26;2201007;80;21066;-86
2022/08/17 04:47:21;;;;;;;26.42;22.50;;;;;;;20.10;100.00;98299.12;2203033;79;21587;-85
2022/08/17 04:50:22;;;;;;;23.05;20.50;;;;;;;20.42;100.00;98301.02;2204149;79;20954;-85
2022/08/17 04:53:23;;;;;;;24.07;21.20;;;;;;;20.65;100.00;98303.35;2202115;81;21060;-86
2022/08/17 04:56:24;;;;;;;26.97;21.25;;;;;;;20.94;100.00;98301.19;2202235;81;21509;-85
2022/08/17 04:59:25;;;;;;;24.40;20.77;;;;;;;21.34;100.00;98303.03;2202170;81;21021;-83
2022/08/17 05:02:26;;;;;;;24.30;21.68;;;;;;;21.78;100.00;98300.82;2198757;79;20951;-85
2022/08/17 05:05:27;;;;;;;27.17;21.85;;;;;;;22.16;100.00;98294.80;2197735;81;21010;-86
2022/08/17 05:08:27;;;;;;;26.93;23.92;;;;;;;22.39;100.00;98292.41;2197425;81;21105;-85
2022/08/17 05:11:28;;;;;;;28.23;23.73;;;;;;;22.69;100.00;98296.97;2198204;79;20935;-85
2022/08/17 05:14:29;;;;;;;25.08;22.52;;;;;;;23.05;100.00;98301.49;2197370;81;21006;-83
2022/08/17 05:17:29;;;;;;;27.48;24.72;;;;;;;23.32;100.00;98309.14;2197555;81;20950;-84
2022/08/17 05:20:30;;;;;;;27.22;23.57;;;;;;;23.56;100.00;98311.47;2197538;81;21165;-82
2022/08/17 05:23:31;;;;;;;25.65;23.07;;;;;;;23.49;100.00;98309.08;2202848;79;21020;-86
2022/08/17 05:26:32;;;;;;;29.20;26.07;;;;;;;23.54;100.00;98310.41;2202721;81;20990;-86
2022/08/17 05:29:33;;;;;;;27.05;24.15;;;;;;;23.84;100.00;98313.51;2201079;79;21021;-86
2022/08/17 05:32:33;;;;;;;28.42;25.25;;;;;;;24.15;100.00;98317.91;2202223;81;21600;-84
2022/08/17 05:35:34;;;;;;;31.15;25.95;;;;;;;24.31;100.00;98317.53;2204329;79;20922;-87
2022/08/17 05:38:35;;;;;;;26.17;23.38;;;;;;;24.59;100.00;98325.89;2202587;81;21513;-87
2022/08/17 05:41:36;;;;;;;25.43;22.73;;;;;;;24.78;100.00;98326.00;2202568;81;21465;-86
2022/08/17 05:44:36;;;;;;;24.15;21.02;;;;;;;24.81;100.00;98332.16;2202717;79;21010;-84
2022/08/17 05:47:37;;;;;;;23.10;20.70;;;;;;;24.99;100.00;98330.66;2207580;80;21043;-85
2022/08/17 05:50:38;;;;;;;20.85;17.37;;;;;;;25.12;100.00;98331.34;2201687;79;21468;-87
2022/08/17 05:53:38;;;;;;;18.95;17.15;;;;;;;25.16;100.00;98327.84;2197254;81;21354;-85
2022/08/17 05:56:39;;;;;;;18.05;16.17;;;;;;;25.15;100.00;98325.45;2198340;81;21540;-88
2022/08/17 05:59:40;;;;;;;20.92;16.07;;;;;;;25.23;100.00;98329.61;2197961;80;20982;-88
2022/08/17 06:02:41;;;;;;;19.02;15.70;;;;;;;25.30;100.00;98326.60;2197495;81;21002;-89
2022/08/17 06:05:42;;;;;;;17.30;15.58;;;;;;;25.21;100.00;98329.65;2197492;81;21014;-88
2022/08/17 06:08:42;;;;;;;22.95;16.73;;;;;;;25.15;100.00;98323.56;2199257;79;21647;-87
2022/08/17 06:11:46;;;;;;;19.50;17.42;;;;;;;25.00;100.00;98322.33;2173181;82;21022;-87
2022/08/17 06:14:47;;;;;;;18.35;16.50;;;;;;;25.04;100.00;98319.91;2172178;82;21150;-91
2022/08/17 06:17:48;;;;;;;18.40;16.40;;;;;;;25.14;100.00;98318.47;2172105;82;21026;-88
2022/08/17 06:20:48;;;;;;;16.50;14.85;;;;;;;25.21;100.00;98318.94;2191751;79;21009;-90
2022/08/17 06:23:49;;;;;;;17.07;15.38;;;;;;;25.28;100.00;98326.64;2197869;80;21445;-90
2022/08/17 06:26:50;;;;;;;19.87;14.23;;;;;;;25.24;100.00;98328.56;2206499;79;20931;-90
2022/08/17 06:29:50;;;;;;;15.93;14.43;;;;;;;25.38;100.00;98334.56;2214627;79;21034;-88
2022/08/17 06:33:04;;;;;;;14.60;12.58;;;;;;;25.36;100.00;98328.16;2197912;80;20998;-89
2022/08/17 06:36:08;;;;;;;15.68;14.07;;;;;;;25.38;100.00;98325.98;2176924;80;21034;-90
2022/08/17 06:39:09;;;;;;;16.85;14.28;;;;;;;25.37;100.00;98317.69;2172973;82;21089;-89
2022/08/17 06:42:10;;;;;;;18.77;13.60;;;;;;;25.43;100.00;98331.30;2173228;82;21053;-89
2022/08/17 06:45:12;;;;;;;16.77;12.55;;;;;;;25.43;100.00;98332.64;2173526;82;21097;-88
2022/08/17 06:48:14;;;;;;;13.43;12.05;;;;;;;25.45;100.00;98337.70;2200032;79;21553;-89
2022/08/17 06:51:14;;;;;;;14.10;12.60;;;;;;;25.51;100.00;98330.67;2202973;81;21062;-90
2022/08/17 06:54:15;;;;;;;16.62;12.25;;;;;;;25.52;100.00;98330.92;2202761;81;21033;-91
2022/08/17 06:57:16;;;;;;;13.45;11.78;;;;;;;25.63;100.00;98338.84;2178871;81;20966;-91
2022/08/17 07:00:17;;;;;;;12.33;11.05;;;;;;;25.69;100.00;98339.02;2202100;79;21041;-90
2022/08/17 07:03:19;;;;;;;11.97;10.80;;;;;;;25.70;100.00;98339.30;2209248;79;20982;-88
2022/08/17 07:06:20;;;;;;;16.30;11.53;;;;;;;25.71;100.00;98328.31;2228459;79;20970;-91
2022/08/17 07:09:22;;;;;;;12.80;10.25;;;;;;;25.72;100.00;98337.16;2189257;79;21584;-91
2022/08/17 07:12:23;;;;;;;12.65;11.35;;;;;;;25.74;100.00;98337.11;2200924;80;21168;-91
2022/08/17 07:15:23;;;;;;;14.90;10.43;;;;;;;25.75;100.00;98340.05;2195712;80;21042;-91
2022/08/17 07:18:24;;;;;;;13.32;10.75;;;;;;;25.83;100.00;98335.94;2190764;79;21490;-90
2022/08/17 07:21:25;;;;;;;12.13;10.78;;;;;;;25.93;100.00;98337.69;2196473;80;21009;-90
2022/08/17 07:24:26;;;;;;;15.15;11.05;;;;;;;25.99;100.00;98341.36;2196732;80;20963;-90
2022/08/17 07:27:52;;;;;;;;;;;;;;;;;;;;;
2022/08/17 07:34:13;;;;;;;13.13;10.90;;;;;;;26.04;100.00;98335.11;2080592;83;21039;-85
2022/08/17 07:37:15;;;;;;;13.88;12.55;;;;;;;26.09;100.00;98337.73;2141539;82;21072;-89
2022/08/17 07:40:13;;;;;;;13.03;11.15;;;;;;;26.02;100.00;98338.09;2136030;82;21046;-88
2022/08/17 07:43:15;;;;;;;12.98;11.78;;;;;;;26.09;100.00;98344.45;2127576;81;21027;-87
2022/08/17 07:49:35;;;;;;;12.85;11.48;;;;;;;26.12;100.00;98338.49;2124309;83;21582;-89
2022/08/17 07:52:36;;;;;;;13.30;12.00;;;;;;;26.16;100.00;98345.44;2138163;83;21566;-90
2022/08/17 07:55:44;;;;;;;14.33;12.93;;;;;;;26.17;100.00;98341.66;2139045;83;21117;-91
2022/08/17 07:58:47;;;;;;;14.38;12.85;;;;;;;26.24;100.00;98340.22;2139202;81;21010;-89
2022/08/17 08:01:48;;;;;;;13.88;12.63;;;;;;;26.29;100.00;98337.45;2138304;81;21166;-89
2022/08/17 08:04:49;;;;;;;14.38;12.43;;;;;;;26.32;100.00;98334.72;2118579;81;21072;-89
2022/08/17 08:07:50;;;;;;;12.03;10.72;;;;;;;26.31;100.00;98335.80;2091020;84;21131;-89
2022/08/17 08:10:51;;;;;;;14.73;12.78;;;;;;;26.28;100.00;98330.48;2084659;84;21565;-88
2022/08/17 08:13:52;;;;;;;13.90;12.45;;;;;;;26.31;100.00;98332.58;2106013;82;21060;-89
2022/08/17 08:16:58;;;;;;;13.30;12.05;;;;;;;26.35;100.00;98338.97;2083903;83;21168;-87
2022/08/17 08:19:59;;;;;;;13.00;11.70;;;;;;;26.37;100.00;98335.99;2085118;83;21056;-86
2022/08/17 08:23:02;;;;;;;14.45;13.05;;;;;;;26.38;100.00;98336.27;2091935;84;21100;-89
2022/08/17 08:26:03;;;;;;;13.70;12.25;;;;;;;26.44;100.00;98337.00;2125245;84;21023;-88
2022/08/17 08:29:04;;;;;;;13.43;12.10;;;;;;;26.52;100.00;98336.34;2124808;80;21074;-86
2022/08/17 08:32:06;;;;;;;17.67;13.48;;;;;;;26.59;100.00;98339.44;2211314;80;20959;-88
2022/08/17 08:35:07;;;;;;;14.25;12.53;;;;;;;26.60;100.00;98339.69;2211073;80;21080;-86
2022/08/17 08:38:08;;;;;;;12.20;11.10;;;;;;;26.66;100.00;98337.17;2206090;79;20958;-78
2022/08/17 08:41:08;;;;;;;13.62;10.53;;;;;;;26.77;100.00;98329.20;2197543;80;21141;-85
2022/08/17 08:44:09;;;;;;;17.40;11.15;;;;;;;26.89;100.00;98327.41;2200599;79;20997;-85
2022/08/17 08:47:10;;;;;;;10.85;9.75;;;;;;;26.95;100.00;98327.55;2204866;79;20995;-85
2022/08/17 08:50:11;;;;;;;11.97;10.55;;;;;;;27.01;100.00;98333.09;2210635;79;21001;-88
2022/08/17 08:53:11;;;;;;;12.63;10.53;;;;;;;27.03;100.00;98334.97;2207974;79;20994;-89
2022/08/17 08:56:12;;;;;;;10.40;9.45;;;;;;;27.15;100.00;98339.85;2212752;80;20986;-90
2022/08/17 08:59:13;;;;;;;10.43;9.35;;;;;;;27.17;100.00;98343.86;2211908;79;20955;-90
2022/08/17 09:02:14;;;;;;;10.88;9.08;;;;;;;27.18;100.00;98341.97;2212177;80;20931;-90
2022/08/17 09:05:15;;;;;;;11.28;9.88;;;;;;;27.19;100.00;98343.55;2211680;80;21018;-90
2022/08/17 09:08:16;;;;;;;9.48;8.58;;;;;;;27.24;100.00;98339.41;2211434;80;20983;-90
2022/08/17 09:11:20;;;;;;;9.25;8.45;;;;;;;27.33;100.00;98338.97;2177659;80;21077;-92
2022/08/17 09:14:20;;;;;;;9.58;8.63;;;;;;;27.38;100.00;98352.88;2197618;81;21021;-90
2022/08/17 09:17:21;;;;;;;9.63;8.78;;;;;;;27.39;100.00;98335.10;2197837;80;20994;-92
2022/08/17 09:20:23;;;;;;;9.40;8.33;;;;;;;27.37;100.00;98335.95;2196246;79;20935;-91
2022/08/17 09:23:24;;;;;;;9.35;8.45;;;;;;;27.30;100.00;98333.41;2190361;81;21511;-91
2022/08/17 09:26:25;;;;;;;9.65;8.75;;;;;;;27.29;100.00;98335.84;2190395;81;20951;-89
2022/08/17 09:29:25;;;;;;;10.53;7.95;;;;;;;27.33;100.00;98338.18;2193669;79;21065;-91
2022/08/17 09:32:27;;;;;;;8.00;7.15;;;;;;;27.35;100.00;98350.25;2197792;79;20958;-91
2022/08/17 09:35:28;;;;;;;10.53;8.33;;;;;;;27.41;100.00;98338.28;2203802;80;21565;-91
2022/08/17 09:38:28;;;;;;;7.12;6.42;;;;;;;27.49;100.00;98349.69;2206095;79;21089;-90
2022/08/17 09:41:29;;;;;;;9.68;7.35;;;;;;;27.53;100.00;98354.48;2198352;81;21027;-88
2022/08/17 09:44:30;;;;;;;8.58;7.78;;;;;;;27.54;100.00;98349.36;2197806;81;20982;-91
2022/08/17 09:47:31;;;;;;;7.78;7.08;;;;;;;27.54;100.00;98348.02;2202820;79;21020;-92
2022/08/17 09:50:35;;;;;;;8.13;7.15;;;;;;;27.61;100.00;98346.49;2204491;79;20990;-92
2022/08/17 09:53:34;;;;;;;8.08;7.37;;;;;;;27.65;100.00;98345.36;2191142;79;21103;-91
2022/08/17 09:56:35;;;;;;;10.15;8.70;;;;;;;27.70;100.00;98349.31;2184141;80;21050;-91
2022/08/17 09:59:35;;;;;;;12.23;7.60;;;;;;;27.79;100.00;98344.81;2185524;79;21514;-90
2022/08/17 10:02:36;;;;;;;8.88;7.70;;;;;;;27.90;100.00;98340.05;2164535;80;21066;-89
2022/08/17 10:05:37;;;;;;;10.60;8.68;;;;;;;28.04;100.00;98347.53;2151832;82;21086;-90
2022/08/17 10:08:38;;;;;;;9.73;7.78;;;;;;;28.17;100.00;98353.99;2167237;79;21070;-91
2022/08/17 10:14:58;;;;;;;14.75;9.03;;;;;;;28.47;100.00;98347.94;2132993;80;21137;-91
2022/08/17 10:18:00;;;;;;;9.18;8.08;;;;;;;28.68;100.00;98342.84;2151816;82;21044;-89
2022/08/17 10:27:39;;;;;;;8.38;7.30;;;;;;;28.96;100.00;98347.56;2234682;79;21058;-90
2022/08/17 10:30:40;;;;;;;9.35;8.48;;;;;;;28.93;97.02;98353.58;2233764;79;20978;-91
2022/08/17 10:33:40;;;;;;;9.28;8.48;;;;;;;28.98;95.39;98341.31;2214139;79;21577;-89
2022/08/17 10:36:47;;;;;;;8.55;7.65;;;;;;;29.02;93.29;98339.61;2203764;81;20993;-91
2022/08/17 10:39:47;;;;;;;9.23;7.70;;;;;;;29.09;94.85;98341.87;2221102;80;21077;-91
2022/08/17 10:42:48;;;;;;;9.15;8.28;;;;;;;29.24;93.12;98340.09;2211547;80;21055;-93
2022/08/17 10:45:50;;;;;;;8.03;7.37;;;;;;;29.31;89.60;98346.39;2209732;79;21555;-91
2022/08/17 10:48:51;;;;;;;8.85;8.05;;;;;;;29.28;88.83;98344.33;2177286;81;21683;-91
2022/08/17 10:51:54;;;;;;;9.58;8.40;;;;;;;29.20;63.39;98345.88;2194745;80;21056;-93
2022/08/17 10:54:58;;;;;;;10.10;8.53;;;;;;;29.03;62.82;98347.14;2195371;80;21069;-92
2022/08/17 10:57:59;;;;;;;8.90;8.30;;;;;;;28.94;63.30;98343.05;2178568;80;21114;-91
2022/08/17 11:01:01;;;;;;;9.18;8.18;;;;;;;29.02;58.95;98343.64;2189814;80;21050;-90
2022/08/17 11:04:02;;;;;;;8.95;8.03;;;;;;;29.15;59.32;98351.39;2223257;79;20978;-90
2022/08/17 11:07:03;;;;;;;10.68;8.28;;;;;;;29.23;57.23;98346.59;2228237;79;21513;-92
2022/08/17 11:10:04;;;;;;;9.45;8.65;;;;;;;29.35;55.89;98353.56;2206467;79;21899;-88
2022/08/17 11:13:05;;;;;;;9.73;8.83;;;;;;;29.45;57.52;98351.94;2215801;79;21049;-89
2022/08/17 11:16:08;;;;;;;10.03;9.18;;;;;;;29.54;56.15;98347.16;2203396;81;21025;-90
2022/08/17 11:19:09;;;;;;;11.45;10.15;;;;;;;29.49;56.57;98344.03;2202921;81;21017;-90
2022/08/17 11:22:09;;;;;;;10.30;9.40;;;;;;;29.35;57.54;98340.61;2202267;80;20975;-91
2022/08/17 11:25:10;;;;;;;10.50;9.50;;;;;;;29.26;56.02;98347.34;2211844;80;20960;-92
2022/08/17 11:28:11;;;;;;;9.60;8.65;;;;;;;29.22;55.01;98349.05;2211441;80;21030;-93
2022/08/17 11:31:12;;;;;;;9.98;9.05;;;;;;;29.13;53.18;98344.97;2211277;80;21010;-91
2022/08/17 11:34:13;;;;;;;9.65;8.75;;;;;;;29.10;53.40;98340.76;2192241;80;21300;-90
2022/08/17 11:37:13;;;;;;;12.35;9.78;;;;;;;29.10;53.18;98332.67;2190620;81;20954;-90
2022/08/17 11:40:14;;;;;;;10.13;9.15;;;;;;;29.11;53.89;98336.95;2190814;81;20990;-92
2022/08/17 11:43:15;;;;;;;13.30;9.50;;;;;;;29.16;54.73;98330.06;2198884;79;20961;-90
2022/08/17 11:46:15;;;;;;;9.65;8.83;;;;;;;29.17;54.45;98324.95;2181376;81;21532;-90
2022/08/17 11:52:36;;;;;;;9.55;8.63;;;;;;;29.17;54.34;98328.98;2184412;81;21049;-91
2022/08/17 11:55:36;;;;;;;8.95;8.05;;;;;;;29.22;53.10;98331.53;2181976;79;21351;-90
2022/08/17 11:58:37;;;;;;;8.95;8.05;;;;;;;29.25;51.72;98332.25;2184761;79;21034;-91
2022/08/17 12:01:39;;;;;;;9.28;8.30;;;;;;;29.24;52.61;98324.47;2196945;79;21023;-90
2022/08/17 12:04:39;;;;;;;9.93;8.45;;;;;;;29.23;53.15;98329.08;2186293;79;21577;-90
2022/08/17 12:07:41;;;;;;;11.95;8.55;;;;;;;29.31;53.04;98324.83;2193887;80;20978;-90
2022/08/17 12:10:42;;;;;;;9.55;8.40;;;;;;;29.40;53.50;98317.02;2198960;80;21557;-89
2022/08/17 12:13:43;;;;;;;9.73;8.83;;;;;;;29.61;52.69;98317.25;2201457;81;21050;-89
2022/08/17 12:16:44;;;;;;;8.98;8.08;;;;;;;29.87;52.24;98324.61;2178693;80;20990;-91
2022/08/17 12:19:44;;;;;;;10.20;8.25;;;;;;;30.07;51.19;98320.50;2211235;80;20951;-90
2022/08/17 12:22:45;;;;;;;8.48;7.78;;;;;;;30.14;49.91;98321.66;2211492;80;20970;-89
2022/08/17 12:25:46;;;;;;;8.33;7.62;;;;;;;30.27;49.29;98322.63;2207803;79;21455;-91
2022/08/17 12:28:47;;;;;;;9.00;8.08;;;;;;;30.40;48.22;98323.56;2190595;81;20986;-89
2022/08/17 12:31:48;;;;;;;8.25;7.53;;;;;;;30.42;48.30;98311.32;2209580;79;20955;-89
2022/08/17 12:34:48;;;;;;;9.15;8.35;;;;;;;30.49;47.85;98308.94;2213874;79;21042;-89
2022/08/17 12:37:49;;;;;;;10.15;8.60;;;;;;;30.58;48.20;98311.07;2208394;79;21038;-88
2022/08/17 12:40:51;;;;;;;8.85;8.10;;;;;;;30.56;47.37;98309.81;2212287;80;20963;-91
2022/08/17 12:43:52;;;;;;;9.38;8.50;;;;;;;30.50;48.72;98317.27;2195162;79;21078;-88
2022/08/17 12:46:52;;;;;;;9.88;8.88;;;;;;;30.31;48.93;98319.52;2211689;80;21014;-91
2022/08/17 12:49:53;;;;;;;10.13;9.13;;;;;;;30.18;49.05;98316.43;2210129;80;21026;-91
2022/08/17 12:52:54;;;;;;;8.48;7.87;;;;;;;30.14;49.57;98312.77;2211246;79;21526;-89
2022/08/17 12:55:55;;;;;;;9.40;8.58;;;;;;;30.14;49.59;98315.46;2188175;79;21006;-90
2022/08/17 12:58:56;;;;;;;9.78;8.75;;;;;;;30.08;48.67;98315.38;2192125;80;21042;-91
2022/08/17 13:01:57;;;;;;;10.53;8.98;;;;;;;29.95;48.15;98321.13;2199996;79;21073;-91
2022/08/17 13:04:58;;;;;;;9.63;8.63;;;;;;;29.85;48.84;98316.05;2207078;79;20959;-92
2022/08/17 13:07:58;;;;;;;10.45;8.70;;;;;;;29.81;49.33;98318.59;2195250;80;21048;-92
2022/08/17 13:10:59;;;;;;;9.18;8.48;;;;;;;29.82;49.57;98312.08;2185583;80;21061;-91
2022/08/17 13:14:00;;;;;;;10.35;9.15;;;;;;;30.08;49.89;98320.77;2185723;81;21576;-91
2022/08/17 13:17:01;;;;;;;9.73;8.93;;;;;;;30.29;49.31;98321.75;2190193;81;21050;-91
2022/08/17 13:20:01;;;;;;;9.55;8.65;;;;;;;30.45;49.57;98310.70;2198002;81;20978;-90
2022/08/17 13:23:02;;;;;;;11.70;10.65;;;;;;;30.67;48.55;98307.03;2197982;81;20951;-92
2022/08/17 13:26:03;;;;;;;13.70;12.25;;;;;;;30.78;48.06;98321.78;2198646;79;20989;-90
2022/08/17 13:29:04;;;;;;;14.55;9.45;;;;;;;30.85;47.58;98318.04;2191489;80;20954;-90
2022/08/17 13:32:05;;;;;;;17.07;11.75;;;;;;;30.89;46.32;98322.79;2215028;80;21006;-92
2022/08/17 13:35:08;;;;;;;10.00;8.95;;;;;;;30.89;46.32;98322.79;2189597;80;21097;-91
2022/08/17 13:38:08;;;;;;;11.60;10.08;;;;;;;30.82;46.16;98322.75;2200899;79;21038;-90
2022/08/17 13:41:11;;;;;;;10.00;9.10;;;;;;;30.36;53.90;98341.50;2198189;81;20995;-90
2022/08/17 13:44:12;;;;;;;11.78;10.50;;;;;;;29.83;57.13;98337.16;2201725;79;21058;-86
2022/08/17 13:47:12;;;;;;;11.70;10.72;;;;;;;29.35;60.43;98341.96;2216641;79;20973;-86
2022/08/17 13:50:13;;;;;;;14.05;10.45;;;;;;;29.22;60.56;98336.12;2203492;81;21029;-84
2022/08/17 13:53:14;;;;;;;13.55;10.53;;;;;;;29.16;60.43;98342.98;2204082;81;20993;-88
2022/08/17 13:56:14;;;;;;;11.60;10.38;;;;;;;29.10;61.09;98338.86;2201230;79;21025;-89
2022/08/17 13:59:15;;;;;;;12.13;10.80;;;;;;;29.04;61.14;98337.39;2208119;80;20997;-87
2022/08/17 14:02:16;;;;;;;13.32;11.95;;;;;;;28.92;61.13;98356.59;2209172;79;20993;-88
2022/08/17 14:05:17;;;;;;;11.60;10.53;;;;;;;28.76;61.90;98346.70;2200497;80;21532;-87
2022/08/17 14:08:18;;;;;;;12.25;10.10;;;;;;;28.69;63.67;98345.78;2203278;81;21018;-87
2022/08/17 14:11:18;;;;;;;12.37;10.90;;;;;;;28.55;64.07;98339.13;2204898;80;21074;-85
2022/08/17 14:14:21;;;;;;;11.53;10.20;;;;;;;28.48;65.04;98336.06;2202169;80;21049;-87
2022/08/17 14:17:22;;;;;;;11.33;10.30;;;;;;;28.43;66.22;98340.20;2210390;80;21042;-88
2022/08/17 14:20:23;;;;;;;11.88;10.75;;;;;;;28.44;66.94;98341.00;2208553;81;21315;-86
2022/08/17 14:23:24;;;;;;;11.18;10.25;;;;;;;28.46;66.16;98342.86;2206162;79;20974;-85
2022/08/17 14:26:25;;;;;;;13.08;10.20;;;;;;;28.38;65.38;98348.41;2199554;79;21049;-86
2022/08/17 14:29:26;;;;;;;13.83;11.22;;;;;;;28.30;65.07;98357.21;2199997;81;20958;-87